Time;durP1;ratioP1;P1;durP2;ratioP2;P2;SDS_P1;SDS_P2;PMS_P1;PMS_P2;Temp;Humidity;BMP_temperature;BMP_pressure;BME280_temperature;BME280_humidity;BME280_pressure;Samples;Min_cycle;Max_cycle;Signal;HPM_P1;HPM_P2
2023/07/02 00:02:08;;;;;;;11.45;7.60;;;;;;;21.34;100.00;99279.03;5085991;28;20081;-19
2023/07/02 00:04:33;;;;;;;14.50;8.38;;;;;;;21.72;100.00;99275.91;5086052;28;20032;-21
2023/07/02 00:06:59;;;;;;;11.95;7.93;;;;;;;21.71;100.00;99277.03;5086146;28;20028;-19
2023/07/02 00:09:24;;;;;;;9.98;7.53;;;;;;;21.71;100.00;99260.75;5085948;28;20032;-19
2023/07/02 00:11:50;;;;;;;10.70;7.85;;;;;;;21.71;100.00;99255.31;5085881;28;20036;-19
2023/07/02 00:14:15;;;;;;;10.05;7.30;;;;;;;21.65;100.00;99257.38;5085717;28;20506;-19
2023/07/02 00:16:46;;;;;;;12.07;7.90;;;;;;;21.46;100.00;99250.25;5085389;28;20030;-19
2023/07/02 00:19:14;;;;;;;12.02;7.82;;;;;;;21.55;100.00;99263.06;5085873;28;20039;-20
2023/07/02 00:21:40;;;;;;;10.90;8.43;;;;;;;21.74;100.00;99255.50;5085891;28;20024;-19
2023/07/02 00:24:09;;;;;;;11.20;7.50;;;;;;;21.77;100.00;99260.28;5085709;28;20062;-19
2023/07/02 00:26:35;;;;;;;10.48;7.85;;;;;;;21.80;100.00;99248.00;5085418;28;20523;-23
2023/07/02 00:29:03;;;;;;;12.48;8.25;;;;;;;21.91;100.00;99253.97;5085678;28;20024;-19
2023/07/02 00:31:31;;;;;;;11.50;7.75;;;;;;;21.75;100.00;99257.09;5085603;28;20097;-19
2023/07/02 00:33:57;;;;;;;12.05;8.77;;;;;;;21.72;100.00;99260.44;5085470;28;20020;-20
2023/07/02 00:36:22;;;;;;;10.85;8.25;;;;;;;21.61;100.00;99268.03;5085426;28;20701;-22
2023/07/02 00:38:49;;;;;;;13.07;8.52;;;;;;;21.81;100.00;99271.31;5085572;28;20020;-21
2023/07/02 00:41:18;;;;;;;11.75;7.75;;;;;;;21.27;100.00;99271.34;5085594;28;20063;-19
2023/07/02 00:43:43;;;;;;;12.68;8.57;;;;;;;21.18;100.00;99276.69;5085517;28;20036;-19
2023/07/02 00:46:22;;;;;;;10.43;8.15;;;;;;;21.17;100.00;99280.53;5085361;28;20031;-19
2023/07/02 00:48:57;;;;;;;10.25;7.68;;;;;;;21.34;100.00;99274.41;5085524;28;20020;-19
2023/07/02 00:51:25;;;;;;;11.27;8.02;;;;;;;21.27;100.00;99258.56;5085323;28;20035;-20
2023/07/02 00:53:54;;;;;;;11.65;8.10;;;;;;;21.24;100.00;99247.53;5085066;28;20023;-19
2023/07/02 00:56:23;;;;;;;11.98;8.35;;;;;;;21.02;100.00;99264.59;5085412;28;20496;-19
2023/07/02 00:58:50;;;;;;;12.07;8.73;;;;;;;20.95;100.00;99259.63;5085179;28;20044;-19
2023/07/02 01:01:18;;;;;;;10.25;8.15;;;;;;;21.02;100.00;99248.34;5085074;28;20036;-18
2023/07/02 01:03:57;;;;;;;11.68;8.63;;;;;;;21.41;100.00;99269.34;5085238;28;20036;-19
2023/07/02 01:06:26;;;;;;;15.30;8.50;;;;;;;21.38;100.00;99269.16;5085378;28;20020;-20
2023/07/02 01:09:07;;;;;;;12.65;8.40;;;;;;;21.39;100.00;99276.19;5085490;28;20074;-19
2023/07/02 01:11:36;;;;;;;11.75;7.93;;;;;;;21.63;100.00;99265.81;5084019;28;20423;-22
2023/07/02 01:14:10;;;;;;;12.05;8.90;;;;;;;21.46;100.00;99265.72;5085483;28;20024;-19
2023/07/02 01:16:37;;;;;;;11.85;8.38;;;;;;;21.07;100.00;99250.94;5085260;28;20111;-21
2023/07/02 01:19:10;;;;;;;13.00;8.45;;;;;;;21.02;100.00;99245.63;5085438;28;20067;-20
2023/07/02 01:21:36;;;;;;;12.15;9.00;;;;;;;21.50;100.00;99264.00;5085320;28;20025;-22
2023/07/02 01:24:02;;;;;;;12.90;9.13;;;;;;;21.47;100.00;99270.03;5085242;28;20031;-21
2023/07/02 01:26:33;;;;;;;12.73;9.18;;;;;;;21.49;100.00;99259.66;5084913;28;20040;-19
2023/07/02 01:28:59;;;;;;;11.75;8.15;;;;;;;21.14;100.00;99270.28;5087306;28;20081;-21
2023/07/02 01:31:25;;;;;;;12.65;9.38;;;;;;;21.38;100.00;99269.16;5088978;28;20081;-19
2023/07/02 01:33:52;;;;;;;12.23;8.38;;;;;;;21.44;100.00;99268.75;5088936;28;20041;-18
2023/07/02 01:36:20;;;;;;;14.00;8.95;;;;;;;21.55;100.00;99272.00;5089005;28;20111;-18
2023/07/02 01:38:45;;;;;;;13.27;8.95;;;;;;;21.84;100.00;99282.38;5089028;28;20115;-18
2023/07/02 01:41:11;;;;;;;14.52;8.63;;;;;;;21.39;100.00;99277.00;5088676;28;20467;-19
2023/07/02 01:43:36;;;;;;;13.77;8.80;;;;;;;21.34;100.00;99274.41;5089011;28;20031;-24
2023/07/02 01:46:02;;;;;;;14.20;8.30;;;;;;;21.17;100.00;99260.75;5088828;28;20028;-19
2023/07/02 01:48:30;;;;;;;15.00;9.70;;;;;;;21.23;100.00;99262.22;5088706;28;20089;-19
2023/07/02 01:50:55;;;;;;;15.43;9.57;;;;;;;21.02;100.00;99240.22;5088490;28;20133;-20
2023/07/02 01:53:24;;;;;;;14.82;9.13;;;;;;;21.02;100.00;99241.03;5088632;28;20031;-19
2023/07/02 01:55:51;;;;;;;17.63;9.93;;;;;;;21.34;100.00;99252.72;5088483;28;20563;-18
2023/07/02 01:58:16;;;;;;;21.00;10.18;;;;;;;21.21;100.00;99259.81;5088344;28;20403;-19
2023/07/02 02:00:45;;;;;;;16.77;9.60;;;;;;;21.00;100.00;99262.22;5088432;28;20039;-20
2023/07/02 02:03:10;;;;;;;16.58;10.05;;;;;;;20.89;100.00;99254.66;5088500;28;20043;-17
2023/07/02 02:05:38;;;;;;;14.05;9.45;;;;;;;20.61;100.00;99249.31;5088491;28;20059;-19
2023/07/02 02:08:06;;;;;;;15.88;9.98;;;;;;;20.50;100.00;99250.63;5088578;28;20039;-19
2023/07/02 02:10:31;;;;;;;;;;;;;;;20.47;100.00;99235.75;5088730;28;20028;-19
2023/07/02 02:12:56;;;;;;;17.70;9.70;;;;;;;20.79;100.00;99253.75;5088218;28;19976;-19
2023/07/02 02:15:22;;;;;;;20.23;10.82;;;;;;;21.00;100.00;99253.28;5087533;28;20824;-19
2023/07/02 02:17:47;;;;;;;19.38;10.60;;;;;;;21.06;100.00;99252.88;5087924;28;20415;-19
2023/07/02 02:20:12;;;;;;;22.17;11.23;;;;;;;20.99;100.00;99257.91;5088149;28;20023;-19
2023/07/02 02:22:38;;;;;;;19.80;11.50;;;;;;;20.93;100.00;99253.72;5088084;28;20028;-19
2023/07/02 02:25:04;;;;;;;18.50;11.68;;;;;;;20.77;100.00;99255.19;5088179;28;20038;-19
2023/07/02 02:27:31;;;;;;;18.10;10.73;;;;;;;20.55;100.00;99250.50;5087516;28;20044;-19
2023/07/02 02:29:57;;;;;;;18.17;11.35;;;;;;;20.54;100.00;99257.03;5087819;28;20554;-20
2023/07/02 02:32:24;;;;;;;18.27;10.52;;;;;;;20.50;100.00;99258.75;5087762;28;20032;-21
2023/07/02 02:34:50;;;;;;;15.88;10.65;;;;;;;20.46;100.00;99253.91;5088026;28;20032;-19
2023/07/02 02:37:15;;;;;;;17.52;9.75;;;;;;;20.51;100.00;99258.41;5087828;28;20035;-19
2023/07/02 02:39:40;;;;;;;14.02;9.20;;;;;;;20.37;100.00;99254.94;5087100;28;20027;-19
2023/07/02 02:42:08;;;;;;;15.05;9.38;;;;;;;20.30;100.00;99252.66;5087803;28;20093;-21
2023/07/02 02:44:34;;;;;;;16.35;10.38;;;;;;;20.23;100.00;99250.34;5087719;28;20054;-18
2023/07/02 02:46:59;;;;;;;14.38;9.45;;;;;;;20.27;100.00;99254.06;5087539;28;20032;-19
2023/07/02 02:49:25;;;;;;;16.27;10.13;;;;;;;20.33;100.00;99257.47;5087432;28;20028;-19
2023/07/02 02:51:53;;;;;;;17.50;9.30;;;;;;;20.15;100.00;99255.69;5087311;28;20077;-19
2023/07/02 02:54:18;;;;;;;;;;;;;;;19.96;100.00;99258.47;5087885;28;20042;-19
2023/07/02 02:56:46;;;;;;;13.10;9.38;;;;;;;19.70;100.00;99263.56;5087319;28;20329;-19
2023/07/02 02:59:11;;;;;;;;;;;;;;;20.03;100.00;99264.31;5087731;28;20032;-19
2023/07/02 03:01:37;;;;;;;15.60;9.52;;;;;;;20.22;100.00;99256.06;5087064;28;19912;-23
2023/07/02 03:04:02;;;;;;;16.00;9.55;;;;;;;19.84;100.00;99262.50;5087462;28;20089;-19
2023/07/02 03:06:28;;;;;;;12.43;9.32;;;;;;;19.90;100.00;99254.28;5087065;28;20546;-19
2023/07/02 03:08:53;;;;;;;16.75;9.60;;;;;;;19.95;100.00;99246.88;5087247;28;20473;-19
2023/07/02 03:11:19;;;;;;;13.95;10.32;;;;;;;20.15;100.00;99251.06;5087138;28;20037;-19
2023/07/02 03:13:44;;;;;;;16.83;10.88;;;;;;;20.31;100.00;99235.31;5087064;28;20028;-20
2023/07/02 03:16:10;;;;;;;16.58;11.00;;;;;;;20.46;100.00;99262.03;5086928;28;20027;-18
2023/07/02 03:18:37;;;;;;;17.05;10.52;;;;;;;20.52;100.00;99265.44;5087161;28;20032;-20
2023/07/02 03:21:03;;;;;;;;;;;;;;;20.79;100.00;99274.63;5087665;28;20032;-19
2023/07/02 03:23:28;;;;;;;18.27;11.40;;;;;;;20.78;100.00;99279.28;5086801;28;20287;-21
2023/07/02 03:25:54;;;;;;;21.73;12.30;;;;;;;20.76;100.00;99289.59;5086441;28;20290;-19
2023/07/02 03:28:21;;;;;;;22.63;12.30;;;;;;;20.76;100.00;99283.38;5086772;28;20070;-20
2023/07/02 03:30:47;;;;;;;19.27;11.75;;;;;;;20.59;100.00;99287.53;5086826;28;20181;-19
2023/07/02 03:33:12;;;;;;;16.25;11.43;;;;;;;20.51;100.00;99287.41;5085332;28;20445;-20
2023/07/02 03:35:37;;;;;;;24.23;12.40;;;;;;;20.62;100.00;99275.31;5086697;28;20031;-19
2023/07/02 03:38:05;;;;;;;20.33;10.80;;;;;;;20.68;100.00;99284.91;5086510;28;20532;-19
2023/07/02 03:40:31;;;;;;;;;;;;;;;20.95;100.00;99294.88;5087218;28;20032;-20
2023/07/02 03:42:58;;;;;;;17.50;10.23;;;;;;;20.93;100.00;99293.56;5086535;28;19968;-19
2023/07/02 03:45:24;;;;;;;;;;;;;;;21.00;100.00;99293.94;5086795;28;20467;-19
2023/07/02 03:47:49;;;;;;;20.95;10.85;;;;;;;21.03;100.00;99301.47;5086398;28;19983;-19
2023/07/02 03:50:15;;;;;;;16.85;10.35;;;;;;;20.65;100.00;99301.75;5085912;28;20028;-19
2023/07/02 03:52:40;;;;;;;21.98;10.45;;;;;;;20.51;100.00;99298.25;5086040;28;20024;-19
2023/07/02 03:55:06;;;;;;;19.92;10.90;;;;;;;20.55;100.00;99299.25;5086260;28;20028;-20
2023/07/02 03:57:34;;;;;;;21.73;10.95;;;;;;;20.75;100.00;99311.59;5086213;28;20028;-19
2023/07/02 03:59:59;;;;;;;23.52;9.98;;;;;;;20.93;100.00;99317.97;5086441;28;20031;-19
2023/07/02 04:02:27;;;;;;;22.65;10.65;;;;;;;21.02;100.00;99332.38;5086023;28;20029;-19
2023/07/02 04:04:53;;;;;;;24.60;11.00;;;;;;;21.02;100.00;99330.50;5086249;28;20060;-18
2023/07/02 04:07:20;;;;;;;26.63;11.07;;;;;;;20.96;100.00;99330.88;5085845;28;20067;-19
2023/07/02 04:09:46;;;;;;;18.27;10.50;;;;;;;20.90;100.00;99324.78;5086273;28;20111;-19
2023/07/02 04:12:11;;;;;;;18.70;10.50;;;;;;;20.90;100.00;99319.34;5085632;28;20397;-19
2023/07/02 04:14:37;;;;;;;18.45;10.60;;;;;;;21.02;100.00;99319.66;5086108;28;20422;-19
2023/07/02 04:17:05;;;;;;;19.30;10.90;;;;;;;21.13;100.00;99306.66;5085902;28;20024;-20
2023/07/02 04:19:30;;;;;;;15.52;10.95;;;;;;;21.33;100.00;99326.22;5085669;28;20532;-18
2023/07/02 04:21:56;;;;;;;18.67;11.32;;;;;;;21.30;100.00;99335.00;5085719;28;20067;-19
2023/07/02 04:24:26;;;;;;;16.70;10.57;;;;;;;21.23;100.00;99338.94;5085344;28;20028;-20
2023/07/02 04:26:51;;;;;;;19.48;11.10;;;;;;;21.00;100.00;99340.00;5085451;28;20153;-18
2023/07/02 04:29:17;;;;;;;15.82;11.77;;;;;;;21.20;100.00;99336.84;5085743;28;20485;-18
2023/07/02 04:31:42;;;;;;;17.73;11.77;;;;;;;20.93;100.00;99326.09;5085534;28;20023;-19
2023/07/02 04:34:07;;;;;;;18.40;11.68;;;;;;;21.09;100.00;99338.19;5085724;28;20028;-22
2023/07/02 04:36:33;;;;;;;16.73;11.20;;;;;;;21.33;100.00;99347.94;5085676;28;20035;-21
2023/07/02 04:39:13;;;;;;;21.55;12.48;;;;;;;21.21;100.00;99340.38;5084953;28;20028;-19
2023/07/02 04:41:38;;;;;;;16.42;11.88;;;;;;;21.37;100.00;99328.03;5085537;28;20036;-21
2023/07/02 04:44:11;;;;;;;20.23;11.13;;;;;;;21.33;100.00;99337.09;5085532;28;20617;-18
2023/07/02 04:47:03;;;;;;;16.65;11.05;;;;;;;21.52;100.00;99340.44;5085718;28;20035;-19
2023/07/02 04:49:28;;;;;;;16.95;11.00;;;;;;;21.46;100.00;99336.25;5085410;28;20154;-21
2023/07/02 04:51:56;;;;;;;14.93;10.60;;;;;;;21.44;100.00;99349.31;5085177;28;20034;-19
2023/07/02 04:54:24;;;;;;;21.67;11.00;;;;;;;21.70;100.00;99354.94;5085178;28;20024;-19
2023/07/02 04:56:50;;;;;;;17.88;10.73;;;;;;;21.70;100.00;99354.09;5085481;28;20602;-19
2023/07/02 04:59:18;;;;;;;18.35;11.25;;;;;;;21.63;100.00;99352.63;5085538;28;20032;-19
2023/07/02 05:01:46;;;;;;;16.60;11.88;;;;;;;21.53;100.00;99341.25;5085319;28;20144;-19
2023/07/02 05:04:14;;;;;;;15.73;11.82;;;;;;;21.81;100.00;99352.75;5089487;28;20089;-18
2023/07/02 05:06:42;;;;;;;17.45;12.07;;;;;;;22.18;100.00;99356.13;5089651;28;20035;-23
2023/07/02 05:09:07;;;;;;;19.23;12.63;;;;;;;22.35;100.00;99358.13;5089114;28;20097;-19
2023/07/02 05:11:35;;;;;;;17.50;13.60;;;;;;;22.27;100.00;99356.97;5089352;28;20044;-19
2023/07/02 05:14:01;;;;;;;;;;;;;;;22.22;100.00;99348.94;5089587;28;20106;-20
2023/07/02 05:16:31;;;;;;;19.80;13.43;;;;;;;22.30;100.00;99361.78;5089421;28;19935;-19
2023/07/02 05:18:56;;;;;;;17.30;12.30;;;;;;;22.24;100.00;99368.47;5089376;28;20024;-19
2023/07/02 05:21:24;;;;;;;20.77;13.57;;;;;;;22.13;100.00;99369.81;5089579;28;20426;-19
2023/07/02 05:23:50;;;;;;;;;;;;;;;22.03;100.00;99382.56;5089492;28;20166;-20
2023/07/02 05:26:15;;;;;;;20.10;13.52;;;;;;;22.31;100.00;99382.38;5088743;28;20431;-19
2023/07/02 05:28:40;;;;;;;21.20;15.20;;;;;;;22.26;100.00;99374.38;5089182;28;20607;-19
2023/07/02 05:31:06;;;;;;;21.63;14.38;;;;;;;22.27;100.00;99371.38;5089092;28;20024;-20
2023/07/02 05:33:33;;;;;;;22.45;14.13;;;;;;;22.32;100.00;99373.13;5089148;28;20093;-19
2023/07/02 05:35:58;;;;;;;21.80;14.60;;;;;;;22.64;100.00;99384.75;5088540;28;20024;-20
2023/07/02 05:38:24;;;;;;;20.33;14.68;;;;;;;22.61;100.00;99386.16;5088988;28;21759;-19
2023/07/02 05:40:52;;;;;;;19.98;14.80;;;;;;;22.48;100.00;99381.66;5088959;28;20035;-19
2023/07/02 05:43:17;;;;;;;;;;;;;;;22.39;100.00;99387.06;5089253;28;20032;-19
2023/07/02 05:45:42;;;;;;;20.20;14.63;;;;;;;22.44;100.00;99395.06;5088979;28;19920;-19
2023/07/02 05:48:08;;;;;;;23.33;15.27;;;;;;;22.32;100.00;99394.88;5087881;28;20777;-21
2023/07/02 05:50:39;;;;;;;20.52;15.60;;;;;;;22.26;100.00;99374.38;5088761;28;20028;-19
2023/07/02 05:53:14;;;;;;;22.63;14.85;;;;;;;22.19;100.00;99372.09;5088573;28;20391;-19
2023/07/02 05:55:42;;;;;;;19.63;14.52;;;;;;;22.05;100.00;99374.91;5088777;28;20032;-24
2023/07/02 05:58:08;;;;;;;21.40;15.13;;;;;;;22.29;100.00;99398.19;5088471;28;20036;-19
2023/07/02 06:00:41;;;;;;;22.08;15.07;;;;;;;22.24;100.00;99410.00;5088383;28;20039;-19
2023/07/02 06:03:18;;;;;;;22.45;15.23;;;;;;;22.33;100.00;99420.94;5088627;28;20069;-18
2023/07/02 06:05:44;;;;;;;;;;;;;;;22.15;100.00;99395.56;5088854;28;20051;-19
2023/07/02 06:08:20;;;;;;;27.58;14.98;;;;;;;22.32;100.00;99400.28;5088775;28;20371;-18
2023/07/02 06:10:50;;;;;;;25.50;15.80;;;;;;;22.34;100.00;99414.38;5088177;28;20032;-19
2023/07/02 06:13:16;;;;;;;24.38;14.90;;;;;;;22.20;100.00;99413.63;5088166;28;20039;-19
2023/07/02 06:15:52;;;;;;;23.98;14.32;;;;;;;22.19;100.00;99412.00;5087322;28;20023;-20
2023/07/02 06:18:17;;;;;;;19.75;13.90;;;;;;;22.12;100.00;99403.53;5088194;28;20081;-19
2023/07/02 06:20:43;;;;;;;21.95;13.60;;;;;;;22.36;100.00;99400.47;5087675;28;20446;-19
2023/07/02 06:23:12;;;;;;;23.52;14.57;;;;;;;22.56;100.00;99401.84;5088122;28;20503;-19
2023/07/02 06:25:51;;;;;;;23.38;15.73;;;;;;;22.50;100.00;99405.81;5087642;28;20028;-19
2023/07/02 06:28:17;;;;;;;22.15;13.60;;;;;;;22.39;100.00;99407.97;5087950;28;20028;-18
2023/07/02 06:30:42;;;;;;;21.33;12.40;;;;;;;22.69;100.00;99409.06;5088260;28;20431;-19
2023/07/02 06:33:08;;;;;;;20.52;13.68;;;;;;;22.49;100.00;99401.47;5088072;28;20407;-19
2023/07/02 06:35:33;;;;;;;21.33;12.95;;;;;;;22.58;100.00;99403.13;5087461;28;20032;-19
2023/07/02 06:37:59;;;;;;;20.80;14.45;;;;;;;22.85;100.00;99404.78;5087382;28;20334;-19
2023/07/02 06:40:24;;;;;;;20.25;13.40;;;;;;;22.97;100.00;99392.50;5087698;28;20082;-19
2023/07/02 06:42:49;;;;;;;21.60;13.80;;;;;;;23.11;100.00;99387.75;5087884;28;20434;-19
2023/07/02 06:45:15;;;;;;;21.42;12.85;;;;;;;23.30;100.00;99383.91;5087625;28;20438;-19
2023/07/02 06:47:40;;;;;;;22.88;13.82;;;;;;;23.41;100.00;99391.41;5087593;28;20074;-21
2023/07/02 06:50:06;;;;;;;23.52;15.02;;;;;;;23.63;100.00;99387.69;5087563;28;20067;-21
2023/07/02 06:52:31;;;;;;;21.17;13.32;;;;;;;23.63;100.00;99390.41;5094589;28;20028;-19
2023/07/02 06:54:57;;;;;;;19.42;12.82;;;;;;;23.44;100.00;99389.97;5107855;28;20104;-19
2023/07/02 06:57:27;;;;;;;18.48;13.23;;;;;;;23.55;100.00;99382.28;5105606;28;20468;-20
2023/07/02 06:59:58;;;;;;;20.10;12.63;;;;;;;23.66;99.86;99381.63;5106499;28;20130;-19
2023/07/02 07:02:24;;;;;;;19.92;13.20;;;;;;;23.58;100.00;99378.91;5107001;28;20055;-20
2023/07/02 07:04:49;;;;;;;20.27;13.90;;;;;;;23.88;100.00;99385.28;5107608;28;20051;-19
2023/07/02 07:07:15;;;;;;;17.45;12.55;;;;;;;24.04;98.54;99385.56;5107528;28;20426;-19
2023/07/02 07:09:40;;;;;;;17.85;11.27;;;;;;;24.15;98.72;99369.66;5107597;28;20038;-21
2023/07/02 07:12:06;;;;;;;16.23;11.25;;;;;;;24.03;95.96;99376.59;5107742;28;20016;-19
2023/07/02 07:14:31;;;;;;;18.50;11.40;;;;;;;24.14;96.66;99362.63;5107204;28;20035;-19
2023/07/02 07:16:57;;;;;;;17.17;10.85;;;;;;;24.33;97.05;99354.81;5107396;28;20021;-23
2023/07/02 07:19:25;;;;;;;18.73;10.98;;;;;;;24.63;95.46;99358.38;5107341;28;20031;-19
2023/07/02 07:21:51;;;;;;;14.77;10.55;;;;;;;24.47;91.61;99355.41;5106900;28;20027;-19
2023/07/02 07:24:19;;;;;;;14.98;10.65;;;;;;;24.45;91.50;99362.31;5107112;28;20076;-19
2023/07/02 07:26:46;;;;;;;14.30;10.45;;;;;;;24.53;92.94;99358.75;5105744;28;20031;-19
2023/07/02 07:29:14;;;;;;;14.82;10.10;;;;;;;24.56;87.79;99369.03;5103835;28;20036;-19
2023/07/02 07:31:42;;;;;;;14.27;9.82;;;;;;;24.66;87.97;99378.72;5107315;28;20031;-19
2023/07/02 07:34:07;;;;;;;13.88;9.35;;;;;;;24.97;87.08;99372.16;5106843;28;20106;-19
2023/07/02 07:36:38;;;;;;;17.67;10.20;;;;;;;24.83;86.88;99381.38;5107213;28;20525;-19
2023/07/02 07:39:06;;;;;;;15.60;10.48;;;;;;;25.15;87.68;99368.16;5098224;28;20036;-19
2023/07/02 07:41:32;;;;;;;14.30;9.65;;;;;;;25.45;86.78;99371.59;5086827;28;20139;-18
2023/07/02 07:43:58;;;;;;;12.82;9.00;;;;;;;25.67;78.51;99361.44;5086263;28;20081;-19
2023/07/02 07:46:23;;;;;;;16.23;10.13;;;;;;;25.82;83.50;99358.03;5086531;28;20024;-20
2023/07/02 07:48:49;;;;;;;15.27;10.55;;;;;;;25.60;79.82;99362.00;5086188;28;20032;-19
2023/07/02 07:51:14;;;;;;;13.60;10.00;;;;;;;25.76;83.17;99355.88;5086520;28;20484;-19
2023/07/02 07:53:39;;;;;;;13.52;9.95;;;;;;;25.91;83.29;99358.00;5086986;28;20644;-19
2023/07/02 07:56:05;;;;;;;14.23;10.40;;;;;;;25.96;77.84;99356.97;5085844;28;20032;-18
2023/07/02 07:58:33;;;;;;;15.15;10.00;;;;;;;26.13;79.78;99364.16;5086508;28;20115;-19
2023/07/02 08:00:59;;;;;;;12.90;9.35;;;;;;;26.12;78.46;99370.78;5086155;28;20026;-19
2023/07/02 08:03:24;;;;;;;13.52;9.30;;;;;;;26.17;77.76;99374.06;5086351;28;20028;-19
2023/07/02 08:05:52;;;;;;;13.40;8.65;;;;;;;26.38;76.65;99371.25;5086112;28;20032;-20
2023/07/02 08:08:20;;;;;;;13.70;9.65;;;;;;;26.65;71.53;99372.50;5086089;28;20048;-19
2023/07/02 08:10:46;;;;;;;11.10;8.18;;;;;;;26.58;75.55;99364.09;5086012;28;20116;-19
2023/07/02 08:13:12;;;;;;;13.57;8.70;;;;;;;26.44;76.31;99371.81;5086172;28;20024;-22
2023/07/02 08:15:37;;;;;;;11.27;8.50;;;;;;;26.57;71.93;99359.75;5086216;28;20059;-19
2023/07/02 08:18:03;;;;;;;12.30;7.93;;;;;;;26.41;72.69;99365.09;5085899;28;20064;-19
2023/07/02 08:20:36;;;;;;;12.80;8.00;;;;;;;26.47;71.33;99368.38;5086289;28;20135;-19
2023/07/02 08:23:03;;;;;;;12.25;7.88;;;;;;;26.35;70.26;99357.47;5085811;28;20032;-19
2023/07/02 08:25:31;;;;;;;10.50;7.63;;;;;;;26.53;71.49;99367.03;5085941;28;20056;-19
2023/07/02 08:28:04;;;;;;;11.32;7.38;;;;;;;26.76;71.51;99356.41;5085671;28;20193;-19
2023/07/02 08:30:30;;;;;;;8.98;6.50;;;;;;;26.81;66.67;99358.94;5085866;28;20039;-18
2023/07/02 08:32:57;;;;;;;10.20;7.20;;;;;;;26.81;66.26;99356.19;5085786;28;20024;-19
2023/07/02 08:35:22;;;;;;;11.52;7.13;;;;;;;27.14;67.45;99348.94;5085822;28;20063;-19
2023/07/02 08:37:56;;;;;;;11.00;7.88;;;;;;;26.90;65.87;99344.31;5085229;28;20057;-19
2023/07/02 08:40:22;;;;;;;9.60;6.40;;;;;;;27.15;65.21;99351.28;5085706;28;20031;-19
2023/07/02 08:42:50;;;;;;;9.98;6.47;;;;;;;26.86;65.70;99349.69;5085633;28;20415;-19
2023/07/02 08:45:18;;;;;;;9.80;6.85;;;;;;;26.97;62.98;99352.72;5085519;28;20028;-21
2023/07/02 08:47:50;;;;;;;9.40;6.35;;;;;;;27.04;66.26;99355.69;5085748;28;20032;-25
2023/07/02 08:50:21;;;;;;;9.48;6.57;;;;;;;27.34;63.54;99341.66;5085634;28;20057;-19
2023/07/02 08:52:46;;;;;;;8.77;6.38;;;;;;;27.44;63.18;99352.13;5085620;28;20054;-19
2023/07/02 08:55:11;;;;;;;9.32;6.47;;;;;;;27.54;61.77;99350.81;5084999;28;20031;-19
2023/07/02 08:57:37;;;;;;;8.20;5.95;;;;;;;27.45;62.45;99361.94;5085364;28;20055;-23
2023/07/02 09:00:10;;;;;;;13.10;6.50;;;;;;;27.40;62.81;99354.78;5085035;28;20063;-19
2023/07/02 09:02:35;;;;;;;9.20;6.47;;;;;;;27.76;63.79;99357.66;5085521;28;20748;-17
2023/07/02 09:05:09;;;;;;;10.07;6.15;;;;;;;27.80;57.81;99342.13;5085137;28;20035;-18
2023/07/02 09:07:48;;;;;;;9.50;6.10;;;;;;;28.23;61.70;99356.91;5085130;28;20051;-19
2023/07/02 09:10:48;;;;;;;12.32;6.75;;;;;;;28.41;59.94;99355.41;5085142;28;20055;-20
2023/07/02 09:13:13;;;;;;;9.55;6.32;;;;;;;28.72;60.93;99344.75;5041466;28;20035;-21
2023/07/02 09:15:40;;;;;;;11.73;6.20;;;;;;;28.90;59.66;99345.16;5085361;28;20028;-18
2023/07/02 09:18:19;;;;;;;10.43;6.70;;;;;;;29.22;53.81;99343.09;5085527;28;20584;-19
2023/07/02 09:20:45;;;;;;;8.65;6.07;;;;;;;28.80;52.85;99339.06;5085148;28;20561;-19
2023/07/02 09:23:13;;;;;;;12.13;7.05;;;;;;;28.94;54.12;99340.53;5084171;28;20028;-19
2023/07/02 09:25:47;;;;;;;8.35;5.55;;;;;;;29.30;53.64;99338.50;5085144;28;20024;-19
2023/07/02 09:28:20;;;;;;;12.45;6.72;;;;;;;29.72;53.20;99337.75;5085458;28;20020;-19
2023/07/02 09:30:56;;;;;;;8.38;5.60;;;;;;;29.69;51.54;99332.94;5084994;28;20499;-21
2023/07/02 09:33:28;;;;;;;9.75;5.70;;;;;;;29.39;50.15;99345.38;5085222;28;20054;-19
2023/07/02 09:35:57;;;;;;;9.93;5.90;;;;;;;29.67;49.14;99352.56;5085173;28;20038;-19
2023/07/02 09:38:23;;;;;;;9.85;6.10;;;;;;;29.58;48.87;99335.50;5085081;28;20027;-19
2023/07/02 09:40:55;;;;;;;10.27;5.97;;;;;;;29.43;49.15;99345.44;5084928;28;20016;-19
2023/07/02 09:43:26;;;;;;;9.55;6.13;;;;;;;29.27;53.25;99344.75;5084902;28;20189;-20
2023/07/02 09:46:00;;;;;;;9.93;6.40;;;;;;;29.67;52.13;99333.34;5084983;28;20514;-19
2023/07/02 09:48:31;;;;;;;9.38;6.05;;;;;;;30.17;47.98;99344.41;5084800;28;20084;-20
2023/07/02 09:51:37;;;;;;;8.75;5.47;;;;;;;29.97;52.58;99332.69;5088564;28;20051;-19
2023/07/02 09:54:04;;;;;;;10.00;5.97;;;;;;;29.83;50.45;99339.53;5088161;28;20097;-19
2023/07/02 09:56:30;;;;;;;9.73;6.15;;;;;;;29.53;52.33;99336.63;5088552;28;20043;-22
2023/07/02 09:58:56;;;;;;;8.82;6.10;;;;;;;29.14;53.81;99341.38;5088688;28;20024;-19
2023/07/02 10:01:22;;;;;;;9.00;5.68;;;;;;;28.84;55.70;99326.19;5087979;28;20047;-19
2023/07/02 10:03:47;;;;;;;9.07;6.18;;;;;;;29.11;52.34;99340.09;5088561;28;20392;-19
2023/07/02 10:06:17;;;;;;;8.82;6.32;;;;;;;29.14;54.11;99336.66;5088399;28;20077;-20
2023/07/02 10:08:56;;;;;;;8.85;6.20;;;;;;;29.07;51.96;99333.72;5088814;28;20495;-19
2023/07/02 10:11:36;;;;;;;10.20;6.55;;;;;;;29.63;53.90;99333.28;5088674;28;20032;-19
2023/07/02 10:14:01;;;;;;;9.20;6.13;;;;;;;29.69;51.24;99333.78;5088677;28;20112;-19
2023/07/02 10:16:27;;;;;;;9.70;5.95;;;;;;;29.84;50.65;99329.34;5088285;28;20032;-18
2023/07/02 10:18:53;;;;;;;10.05;6.30;;;;;;;29.89;50.87;99333.72;5088372;28;20047;-21
2023/07/02 10:21:24;;;;;;;9.48;6.63;;;;;;;29.67;51.36;99332.53;5088401;28;20756;-19
2023/07/02 10:23:50;;;;;;;9.20;5.65;;;;;;;29.75;49.53;99331.53;5088061;28;20107;-19
2023/07/02 10:26:17;;;;;;;10.30;6.75;;;;;;;29.20;51.35;99329.72;5088153;28;20712;-24
2023/07/02 10:28:45;;;;;;;10.43;5.90;;;;;;;29.22;51.86;99321.91;5088387;28;20019;-19
2023/07/02 10:31:23;;;;;;;9.45;6.28;;;;;;;29.20;52.15;99312.47;5087972;28;20039;-20
2023/07/02 10:33:50;;;;;;;9.35;6.00;;;;;;;29.24;56.07;99319.59;5087578;28;20119;-19
2023/07/02 10:36:25;;;;;;;17.00;7.07;;;;;;;29.31;55.58;99309.91;5087889;28;20146;-24
2023/07/02 10:38:51;;;;;;;9.90;6.05;;;;;;;29.33;52.48;99318.59;5087652;28;20483;-19
2023/07/02 10:41:27;;;;;;;11.38;6.53;;;;;;;29.47;53.29;99329.03;5087666;28;20035;-22
2023/07/02 10:43:56;;;;;;;11.90;6.80;;;;;;;29.32;53.46;99325.22;5087902;28;20020;-19
2023/07/02 10:46:21;;;;;;;9.45;5.95;;;;;;;29.31;50.66;99318.16;5087613;28;20085;-19
2023/07/02 10:49:09;;;;;;;10.80;6.28;;;;;;;29.34;51.49;99325.66;5087684;28;20028;-20
2023/07/02 10:51:34;;;;;;;9.27;6.25;;;;;;;28.66;56.50;99316.78;5087200;28;20122;-19
2023/07/02 10:54:02;;;;;;;10.10;6.22;;;;;;;28.54;59.07;99314.19;5087864;28;20096;-19
2023/07/02 10:56:28;;;;;;;8.60;6.35;;;;;;;27.92;60.05;99311.13;5087187;28;20511;-19
2023/07/02 10:58:55;;;;;;;10.90;6.43;;;;;;;28.08;61.39;99308.41;5087316;28;20028;-19
2023/07/02 11:01:30;;;;;;;11.95;6.82;;;;;;;27.36;64.53;99312.81;5087105;28;20028;-19
2023/07/02 11:04:06;;;;;;;11.35;6.72;;;;;;;27.55;66.84;99308.63;5085997;28;20031;-19
2023/07/02 11:06:33;;;;;;;13.02;7.03;;;;;;;28.29;65.86;99319.84;5085676;28;20097;-19
2023/07/02 11:09:01;;;;;;;10.02;7.07;;;;;;;28.98;60.13;99303.75;5087382;28;20038;-21
2023/07/02 11:11:27;;;;;;;11.13;6.35;;;;;;;28.64;59.20;99308.13;5087071;28;20026;-19
2023/07/02 11:13:55;;;;;;;12.20;6.38;;;;;;;28.38;60.54;99305.94;5087278;28;20028;-20
2023/07/02 11:16:25;;;;;;;10.32;6.60;;;;;;;28.72;59.68;99317.31;5086847;28;20032;-19
2023/07/02 11:19:23;;;;;;;9.30;6.47;;;;;;;28.53;59.59;99318.09;5086999;28;20024;-19
2023/07/02 11:21:53;;;;;;;10.43;7.22;;;;;;;28.45;61.04;99306.91;5070374;28;20086;-19
2023/07/02 11:24:36;;;;;;;9.93;6.40;;;;;;;28.57;57.94;99308.00;5087015;28;20032;-19
2023/07/02 11:27:08;;;;;;;11.93;6.80;;;;;;;28.35;58.17;99312.94;5086655;28;20630;-19